sensor_id;sensor_type;location;lat;lon;timestamp;temperature;humidity
42199;DHT22;27868;45.184;5.786;2022-08-21T00:00:16;23.20;71.60
42199;DHT22;27868;45.184;5.786;2022-08-21T00:03:05;23.20;71.60
42199;DHT22;27868;45.184;5.786;2022-08-21T00:05:50;23.20;72.20
42199;DHT22;27868;45.184;5.786;2022-08-21T00:08:36;23.20;71.80
42199;DHT22;27868;45.184;5.786;2022-08-21T00:11:21;23.10;72.00
42199;DHT22;27868;45.184;5.786;2022-08-21T00:14:07;23.10;72.10
42199;DHT22;27868;45.184;5.786;2022-08-21T00:16:52;23.10;72.10
42199;DHT22;27868;45.184;5.786;2022-08-21T00:19:37;23.10;72.10
42199;DHT22;27868;45.184;5.786;2022-08-21T00:22:21;23.10;72.10
42199;DHT22;27868;45.184;5.786;2022-08-21T00:25:07;23.00;72.20
42199;DHT22;27868;45.184;5.786;2022-08-21T00:27:53;23.00;72.40
42199;DHT22;27868;45.184;5.786;2022-08-21T00:30:39;23.00;72.40
42199;DHT22;27868;45.184;5.786;2022-08-21T00:33:25;23.00;72.50
42199;DHT22;27868;45.184;5.786;2022-08-21T00:36:10;23.00;72.40
42199;DHT22;27868;45.184;5.786;2022-08-21T00:38:56;22.90;72.40
42199;DHT22;27868;45.184;5.786;2022-08-21T00:41:41;22.90;72.50
42199;DHT22;27868;45.184;5.786;2022-08-21T00:44:26;22.90;72.60
42199;DHT22;27868;45.184;5.786;2022-08-21T00:47:11;22.90;72.80
42199;DHT22;27868;45.184;5.786;2022-08-21T00:49:56;22.90;72.90
42199;DHT22;27868;45.184;5.786;2022-08-21T00:52:41;22.80;72.90
42199;DHT22;27868;45.184;5.786;2022-08-21T00:55:26;22.80;72.90
42199;DHT22;27868;45.184;5.786;2022-08-21T00:58:13;22.80;73.10
42199;DHT22;27868;45.184;5.786;2022-08-21T01:00:59;22.80;73.30
42199;DHT22;27868;45.184;5.786;2022-08-21T01:03:46;22.80;73.40
42199;DHT22;27868;45.184;5.786;2022-08-21T01:06:31;22.70;73.10
42199;DHT22;27868;45.184;5.786;2022-08-21T01:09:16;22.70;73.70
42199;DHT22;27868;45.184;5.786;2022-08-21T01:12:00;22.70;73.40
42199;DHT22;27868;45.184;5.786;2022-08-21T01:14:45;22.70;73.70
42199;DHT22;27868;45.184;5.786;2022-08-21T01:17:30;22.70;73.90
42199;DHT22;27868;45.184;5.786;2022-08-21T01:20:16;22.70;74.70
42199;DHT22;27868;45.184;5.786;2022-08-21T01:23:03;22.70;74.10
42199;DHT22;27868;45.184;5.786;2022-08-21T01:25:48;22.60;74.10
42199;DHT22;27868;45.184;5.786;2022-08-21T01:28:37;22.60;74.10
42199;DHT22;27868;45.184;5.786;2022-08-21T01:31:24;22.60;74.10
42199;DHT22;27868;45.184;5.786;2022-08-21T01:34:11;22.60;74.30
42199;DHT22;27868;45.184;5.786;2022-08-21T01:36:56;22.60;74.30
42199;DHT22;27868;45.184;5.786;2022-08-21T01:39:42;22.50;74.30
42199;DHT22;27868;45.184;5.786;2022-08-21T01:42:27;22.50;74.50
42199;DHT22;27868;45.184;5.786;2022-08-21T01:45:13;22.50;74.70
42199;DHT22;27868;45.184;5.786;2022-08-21T01:47:58;22.50;74.70
42199;DHT22;27868;45.184;5.786;2022-08-21T01:50:42;22.40;75.10
42199;DHT22;27868;45.184;5.786;2022-08-21T01:53:27;22.40;74.90
42199;DHT22;27868;45.184;5.786;2022-08-21T01:56:13;22.40;75.10
42199;DHT22;27868;45.184;5.786;2022-08-21T01:58:58;22.40;75.30
42199;DHT22;27868;45.184;5.786;2022-08-21T02:01:43;22.40;75.20
42199;DHT22;27868;45.184;5.786;2022-08-21T02:04:28;22.30;75.20
42199;DHT22;27868;45.184;5.786;2022-08-21T02:07:13;22.30;75.40
42199;DHT22;27868;45.184;5.786;2022-08-21T02:09:57;22.30;75.50
42199;DHT22;27868;45.184;5.786;2022-08-21T02:12:42;22.30;75.70
42199;DHT22;27868;45.184;5.786;2022-08-21T02:15:28;22.20;75.80
42199;DHT22;27868;45.184;5.786;2022-08-21T02:18:13;22.20;75.90
42199;DHT22;27868;45.184;5.786;2022-08-21T02:20:58;22.20;76.00
42199;DHT22;27868;45.184;5.786;2022-08-21T02:23:43;22.20;76.10
42199;DHT22;27868;45.184;5.786;2022-08-21T02:26:28;22.20;76.20
42199;DHT22;27868;45.184;5.786;2022-08-21T02:29:12;22.20;76.10
42199;DHT22;27868;45.184;5.786;2022-08-21T02:31:57;22.10;76.20
42199;DHT22;27868;45.184;5.786;2022-08-21T02:34:43;22.10;76.20
42199;DHT22;27868;45.184;5.786;2022-08-21T02:37:27;22.10;76.20
42199;DHT22;27868;45.184;5.786;2022-08-21T02:40:14;22.10;76.90
42199;DHT22;27868;45.184;5.786;2022-08-21T02:43:00;22.10;76.60
42199;DHT22;27868;45.184;5.786;2022-08-21T02:45:47;22.10;76.70
42199;DHT22;27868;45.184;5.786;2022-08-21T02:48:33;22.10;76.90
42199;DHT22;27868;45.184;5.786;2022-08-21T02:51:19;22.10;76.90
42199;DHT22;27868;45.184;5.786;2022-08-21T02:54:04;22.00;77.20
42199;DHT22;27868;45.184;5.786;2022-08-21T02:56:49;22.00;77.20
42199;DHT22;27868;45.184;5.786;2022-08-21T02:59:33;22.00;77.30
42199;DHT22;27868;45.184;5.786;2022-08-21T03:02:18;22.00;77.20
42199;DHT22;27868;45.184;5.786;2022-08-21T03:05:04;22.00;77.20
42199;DHT22;27868;45.184;5.786;2022-08-21T03:07:49;22.00;77.10
42199;DHT22;27868;45.184;5.786;2022-08-21T03:10:34;21.90;77.10
42199;DHT22;27868;45.184;5.786;2022-08-21T03:13:19;21.90;77.10
42199;DHT22;27868;45.184;5.786;2022-08-21T03:16:05;21.90;77.20
42199;DHT22;27868;45.184;5.786;2022-08-21T03:18:50;21.90;77.10
42199;DHT22;27868;45.184;5.786;2022-08-21T03:21:36;21.90;77.20
42199;DHT22;27868;45.184;5.786;2022-08-21T03:24:21;21.90;77.40
42199;DHT22;27868;45.184;5.786;2022-08-21T03:27:05;21.80;77.80
42199;DHT22;27868;45.184;5.786;2022-08-21T03:29:50;21.80;77.30
42199;DHT22;27868;45.184;5.786;2022-08-21T03:32:34;21.80;77.60
42199;DHT22;27868;45.184;5.786;2022-08-21T03:35:20;21.80;77.70
42199;DHT22;27868;45.184;5.786;2022-08-21T03:38:05;21.80;77.70
42199;DHT22;27868;45.184;5.786;2022-08-21T03:40:49;21.80;77.80
42199;DHT22;27868;45.184;5.786;2022-08-21T03:43:35;21.70;77.90
42199;DHT22;27868;45.184;5.786;2022-08-21T03:46:20;21.70;78.10
42199;DHT22;27868;45.184;5.786;2022-08-21T03:49:04;21.70;78.00
42199;DHT22;27868;45.184;5.786;2022-08-21T03:51:48;21.70;77.90
42199;DHT22;27868;45.184;5.786;2022-08-21T03:54:33;21.70;78.00
42199;DHT22;27868;45.184;5.786;2022-08-21T03:57:18;21.70;77.90
42199;DHT22;27868;45.184;5.786;2022-08-21T04:00:04;21.70;77.90
42199;DHT22;27868;45.184;5.786;2022-08-21T04:02:49;21.70;77.80
42199;DHT22;27868;45.184;5.786;2022-08-21T04:05:34;21.60;77.60
42199;DHT22;27868;45.184;5.786;2022-08-21T04:08:19;21.60;77.60
42199;DHT22;27868;45.184;5.786;2022-08-21T04:11:05;21.60;77.80
42199;DHT22;27868;45.184;5.786;2022-08-21T04:13:50;21.60;78.00
42199;DHT22;27868;45.184;5.786;2022-08-21T04:16:34;21.60;78.00
42199;DHT22;27868;45.184;5.786;2022-08-21T04:19:19;21.60;77.90
42199;DHT22;27868;45.184;5.786;2022-08-21T04:22:04;21.60;78.00
42199;DHT22;27868;45.184;5.786;2022-08-21T04:24:49;21.60;78.20
42199;DHT22;27868;45.184;5.786;2022-08-21T04:27:34;21.50;78.60
42199;DHT22;27868;45.184;5.786;2022-08-21T04:30:19;21.50;78.00
42199;DHT22;27868;45.184;5.786;2022-08-21T04:33:04;21.50;78.10
42199;DHT22;27868;45.184;5.786;2022-08-21T04:35:49;21.50;78.00
42199;DHT22;27868;45.184;5.786;2022-08-21T04:38:34;21.50;77.90
42199;DHT22;27868;45.184;5.786;2022-08-21T04:41:19;21.50;77.90
42199;DHT22;27868;45.184;5.786;2022-08-21T04:44:04;21.50;78.00
42199;DHT22;27868;45.184;5.786;2022-08-21T04:46:48;21.40;78.00
42199;DHT22;27868;45.184;5.786;2022-08-21T04:49:33;21.40;78.00
42199;DHT22;27868;45.184;5.786;2022-08-21T04:52:21;21.40;78.00
42199;DHT22;27868;45.184;5.786;2022-08-21T04:55:07;21.40;78.20
42199;DHT22;27868;45.184;5.786;2022-08-21T04:57:54;21.40;78.30
42199;DHT22;27868;45.184;5.786;2022-08-21T05:00:40;21.40;78.40
42199;DHT22;27868;45.184;5.786;2022-08-21T05:03:25;21.30;78.20
42199;DHT22;27868;45.184;5.786;2022-08-21T05:06:11;21.30;78.20
42199;DHT22;27868;45.184;5.786;2022-08-21T05:08:58;21.30;78.30
42199;DHT22;27868;45.184;5.786;2022-08-21T05:11:43;21.30;78.30
42199;DHT22;27868;45.184;5.786;2022-08-21T05:14:28;21.30;78.40
42199;DHT22;27868;45.184;5.786;2022-08-21T05:17:13;21.20;78.40
42199;DHT22;27868;45.184;5.786;2022-08-21T05:19:58;21.30;78.40
42199;DHT22;27868;45.184;5.786;2022-08-21T05:22:42;21.20;78.40
42199;DHT22;27868;45.184;5.786;2022-08-21T05:25:27;21.20;78.40
42199;DHT22;27868;45.184;5.786;2022-08-21T05:28:12;21.20;78.70
42199;DHT22;27868;45.184;5.786;2022-08-21T05:30:57;21.20;78.70
42199;DHT22;27868;45.184;5.786;2022-08-21T05:33:42;21.20;78.70
42199;DHT22;27868;45.184;5.786;2022-08-21T05:36:26;21.20;78.70
42199;DHT22;27868;45.184;5.786;2022-08-21T05:39:11;21.20;78.80
42199;DHT22;27868;45.184;5.786;2022-08-21T05:41:56;21.10;78.90
42199;DHT22;27868;45.184;5.786;2022-08-21T05:44:41;21.10;79.10
42199;DHT22;27868;45.184;5.786;2022-08-21T05:47:25;21.10;79.20
42199;DHT22;27868;45.184;5.786;2022-08-21T05:50:10;21.10;79.20
42199;DHT22;27868;45.184;5.786;2022-08-21T05:52:55;21.10;79.10
42199;DHT22;27868;45.184;5.786;2022-08-21T05:55:40;21.10;79.30
42199;DHT22;27868;45.184;5.786;2022-08-21T05:58:25;21.10;79.40
42199;DHT22;27868;45.184;5.786;2022-08-21T06:01:10;21.10;79.50
42199;DHT22;27868;45.184;5.786;2022-08-21T06:03:55;21.20;79.80
42199;DHT22;27868;45.184;5.786;2022-08-21T06:06:40;21.10;79.70
42199;DHT22;27868;45.184;5.786;2022-08-21T06:09:24;21.10;80.00
42199;DHT22;27868;45.184;5.786;2022-08-21T06:12:11;21.10;80.20
42199;DHT22;27868;45.184;5.786;2022-08-21T06:14:56;21.20;80.40
42199;DHT22;27868;45.184;5.786;2022-08-21T06:17:41;21.10;80.20
42199;DHT22;27868;45.184;5.786;2022-08-21T06:20:25;21.10;80.10
42199;DHT22;27868;45.184;5.786;2022-08-21T06:23:10;21.10;80.30
42199;DHT22;27868;45.184;5.786;2022-08-21T06:25:55;21.10;80.30
42199;DHT22;27868;45.184;5.786;2022-08-21T06:28:40;21.20;80.40
42199;DHT22;27868;45.184;5.786;2022-08-21T06:31:27;21.20;80.60
42199;DHT22;27868;45.184;5.786;2022-08-21T06:34:12;21.30;80.70
42199;DHT22;27868;45.184;5.786;2022-08-21T06:36:57;21.40;80.70
42199;DHT22;27868;45.184;5.786;2022-08-21T06:39:41;21.50;80.50
42199;DHT22;27868;45.184;5.786;2022-08-21T06:42:27;21.50;80.20
42199;DHT22;27868;45.184;5.786;2022-08-21T06:45:12;21.60;79.60
42199;DHT22;27868;45.184;5.786;2022-08-21T06:47:57;21.70;79.70
42199;DHT22;27868;45.184;5.786;2022-08-21T06:50:42;21.90;79.50
42199;DHT22;27868;45.184;5.786;2022-08-21T06:53:26;21.90;79.20
42199;DHT22;27868;45.184;5.786;2022-08-21T06:56:12;22.00;79.10
42199;DHT22;27868;45.184;5.786;2022-08-21T06:58:56;22.00;79.00
42199;DHT22;27868;45.184;5.786;2022-08-21T07:01:41;22.10;78.70
42199;DHT22;27868;45.184;5.786;2022-08-21T07:04:26;22.10;78.70
42199;DHT22;27868;45.184;5.786;2022-08-21T07:07:11;22.20;78.70
42199;DHT22;27868;45.184;5.786;2022-08-21T07:09:55;22.20;78.90
42199;DHT22;27868;45.184;5.786;2022-08-21T07:12:40;22.20;78.60
42199;DHT22;27868;45.184;5.786;2022-08-21T07:15:25;22.30;78.60
42199;DHT22;27868;45.184;5.786;2022-08-21T07:18:10;22.30;78.70
42199;DHT22;27868;45.184;5.786;2022-08-21T07:20:55;22.40;78.60
42199;DHT22;27868;45.184;5.786;2022-08-21T07:23:44;22.40;78.10
42199;DHT22;27868;45.184;5.786;2022-08-21T07:26:30;22.40;77.50
42199;DHT22;27868;45.184;5.786;2022-08-21T07:29:14;22.40;77.20
42199;DHT22;27868;45.184;5.786;2022-08-21T07:31:59;22.40;77.80
42199;DHT22;27868;45.184;5.786;2022-08-21T07:34:43;22.30;77.70
42199;DHT22;27868;45.184;5.786;2022-08-21T07:37:29;22.40;77.40
42199;DHT22;27868;45.184;5.786;2022-08-21T07:40:14;22.40;77.50
42199;DHT22;27868;45.184;5.786;2022-08-21T07:42:59;22.40;77.10
42199;DHT22;27868;45.184;5.786;2022-08-21T07:45:45;22.40;76.90
42199;DHT22;27868;45.184;5.786;2022-08-21T07:48:30;22.40;76.60
42199;DHT22;27868;45.184;5.786;2022-08-21T07:51:16;22.50;77.20
42199;DHT22;27868;45.184;5.786;2022-08-21T07:54:01;22.50;77.10
42199;DHT22;27868;45.184;5.786;2022-08-21T07:56:45;22.50;77.20
42199;DHT22;27868;45.184;5.786;2022-08-21T07:59:30;22.50;77.20
42199;DHT22;27868;45.184;5.786;2022-08-21T08:02:26;23.10;77.70
42199;DHT22;27868;45.184;5.786;2022-08-21T08:05:11;22.50;77.40
42199;DHT22;27868;45.184;5.786;2022-08-21T08:07:56;22.50;77.60
42199;DHT22;27868;45.184;5.786;2022-08-21T08:10:41;22.50;77.70
42199;DHT22;27868;45.184;5.786;2022-08-21T08:13:25;22.50;77.40
42199;DHT22;27868;45.184;5.786;2022-08-21T08:16:10;22.70;77.60
42199;DHT22;27868;45.184;5.786;2022-08-21T08:18:55;22.50;77.60
42199;DHT22;27868;45.184;5.786;2022-08-21T08:21:40;22.50;77.60
42199;DHT22;27868;45.184;5.786;2022-08-21T08:24:25;22.50;77.50
42199;DHT22;27868;45.184;5.786;2022-08-21T08:27:10;22.50;77.40
42199;DHT22;27868;45.184;5.786;2022-08-21T08:29:55;22.50;77.20
42199;DHT22;27868;45.184;5.786;2022-08-21T08:32:41;22.50;77.20
42199;DHT22;27868;45.184;5.786;2022-08-21T08:35:25;22.60;77.20
42199;DHT22;27868;45.184;5.786;2022-08-21T08:38:10;22.50;77.20
42199;DHT22;27868;45.184;5.786;2022-08-21T08:41:06;22.50;76.90
42199;DHT22;27868;45.184;5.786;2022-08-21T08:43:55;22.60;76.10
42199;DHT22;27868;45.184;5.786;2022-08-21T08:46:47;22.60;75.70
42199;DHT22;27868;45.184;5.786;2022-08-21T08:49:47;22.60;75.70
42199;DHT22;27868;45.184;5.786;2022-08-21T08:52:36;22.60;76.00
42199;DHT22;27868;45.184;5.786;2022-08-21T08:55:28;22.60;76.10
42199;DHT22;27868;45.184;5.786;2022-08-21T08:58:20;22.70;76.20
42199;DHT22;27868;45.184;5.786;2022-08-21T09:01:23;22.60;75.50
42199;DHT22;27868;45.184;5.786;2022-08-21T09:04:07;22.60;75.60
42199;DHT22;27868;45.184;5.786;2022-08-21T09:06:57;22.70;75.40
42199;DHT22;27868;45.184;5.786;2022-08-21T09:16:04;22.70;75.30
42199;DHT22;27868;45.184;5.786;2022-08-21T09:19:05;22.80;74.70
42199;DHT22;27868;45.184;5.786;2022-08-21T09:25:05;22.90;75.00
42199;DHT22;27868;45.184;5.786;2022-08-21T09:27:52;22.90;74.60
42199;DHT22;27868;45.184;5.786;2022-08-21T09:30:39;23.00;74.40
42199;DHT22;27868;45.184;5.786;2022-08-21T09:33:25;23.00;74.50
42199;DHT22;27868;45.184;5.786;2022-08-21T09:36:10;23.10;74.90
42199;DHT22;27868;45.184;5.786;2022-08-21T09:38:55;23.20;74.50
42199;DHT22;27868;45.184;5.786;2022-08-21T09:41:40;23.30;74.30
42199;DHT22;27868;45.184;5.786;2022-08-21T09:44:27;23.40;74.30
42199;DHT22;27868;45.184;5.786;2022-08-21T09:47:13;23.40;74.00
42199;DHT22;27868;45.184;5.786;2022-08-21T09:50:12;23.40;73.50
42199;DHT22;27868;45.184;5.786;2022-08-21T09:52:58;23.50;73.30
42199;DHT22;27868;45.184;5.786;2022-08-21T09:55:56;23.50;73.50
42199;DHT22;27868;45.184;5.786;2022-08-21T09:59:01;23.50;73.00
42199;DHT22;27868;45.184;5.786;2022-08-21T10:01:48;23.50;72.70
42199;DHT22;27868;45.184;5.786;2022-08-21T10:04:36;23.60;72.90
42199;DHT22;27868;45.184;5.786;2022-08-21T10:07:22;23.60;72.90
42199;DHT22;27868;45.184;5.786;2022-08-21T10:10:18;23.60;72.60
42199;DHT22;27868;45.184;5.786;2022-08-21T10:13:43;23.60;72.70
42199;DHT22;27868;45.184;5.786;2022-08-21T10:19:36;23.70;73.20
42199;DHT22;27868;45.184;5.786;2022-08-21T10:31:56;24.00;72.60
42199;DHT22;27868;45.184;5.786;2022-08-21T10:34:54;24.00;71.90
42199;DHT22;27868;45.184;5.786;2022-08-21T10:44:29;24.30;71.30
42199;DHT22;27868;45.184;5.786;2022-08-21T10:50:17;24.50;71.60
42199;DHT22;27868;45.184;5.786;2022-08-21T10:56:25;24.70;70.80
42199;DHT22;27868;45.184;5.786;2022-08-21T10:59:31;24.90;71.60
42199;DHT22;27868;45.184;5.786;2022-08-21T11:02:28;25.10;71.20
42199;DHT22;27868;45.184;5.786;2022-08-21T11:05:30;25.20;69.60
42199;DHT22;27868;45.184;5.786;2022-08-21T11:08:29;25.30;69.30
42199;DHT22;27868;45.184;5.786;2022-08-21T11:11:39;25.50;68.50
42199;DHT22;27868;45.184;5.786;2022-08-21T11:21:03;25.90;67.40
42199;DHT22;27868;45.184;5.786;2022-08-21T11:27:04;26.10;67.10
42199;DHT22;27868;45.184;5.786;2022-08-21T11:29:56;26.30;66.90
42199;DHT22;27868;45.184;5.786;2022-08-21T11:39:40;26.80;65.00
42199;DHT22;27868;45.184;5.786;2022-08-21T11:43:12;27.00;64.10
42199;DHT22;27868;45.184;5.786;2022-08-21T11:55:31;27.50;62.20
42199;DHT22;27868;45.184;5.786;2022-08-21T11:58:28;27.70;62.40
42199;DHT22;27868;45.184;5.786;2022-08-21T12:01:19;27.90;62.30
42199;DHT22;27868;45.184;5.786;2022-08-21T12:07:35;28.10;62.00
42199;DHT22;27868;45.184;5.786;2022-08-21T12:10:35;28.30;61.00
42199;DHT22;27868;45.184;5.786;2022-08-21T12:13:26;28.30;60.80
42199;DHT22;27868;45.184;5.786;2022-08-21T12:16:15;28.40;60.10
42199;DHT22;27868;45.184;5.786;2022-08-21T12:19:29;28.40;60.00
42199;DHT22;27868;45.184;5.786;2022-08-21T12:22:14;28.40;60.00
42199;DHT22;27868;45.184;5.786;2022-08-21T12:25:06;28.40;60.10
42199;DHT22;27868;45.184;5.786;2022-08-21T12:28:06;28.50;59.40
42199;DHT22;27868;45.184;5.786;2022-08-21T12:30:51;28.50;59.60
42199;DHT22;27868;45.184;5.786;2022-08-21T12:33:38;28.60;60.20
42199;DHT22;27868;45.184;5.786;2022-08-21T12:36:48;28.70;59.70
42199;DHT22;27868;45.184;5.786;2022-08-21T12:39:38;28.90;59.10
42199;DHT22;27868;45.184;5.786;2022-08-21T12:42:38;29.00;58.90
42199;DHT22;27868;45.184;5.786;2022-08-21T12:45:43;29.10;58.30
42199;DHT22;27868;45.184;5.786;2022-08-21T12:52:20;29.20;57.90
42199;DHT22;27868;45.184;5.786;2022-08-21T12:55:10;29.20;56.40
42199;DHT22;27868;45.184;5.786;2022-08-21T12:57:55;29.20;56.90
42199;DHT22;27868;45.184;5.786;2022-08-21T13:00:51;29.20;56.60
42199;DHT22;27868;45.184;5.786;2022-08-21T13:03:37;29.10;56.60
42199;DHT22;27868;45.184;5.786;2022-08-21T13:06:22;29.10;56.10
42199;DHT22;27868;45.184;5.786;2022-08-21T13:09:11;29.10;56.00
42199;DHT22;27868;45.184;5.786;2022-08-21T13:11:57;29.10;56.20
42199;DHT22;27868;45.184;5.786;2022-08-21T13:14:44;29.20;56.10
42199;DHT22;27868;45.184;5.786;2022-08-21T13:17:35;29.30;55.70
42199;DHT22;27868;45.184;5.786;2022-08-21T13:20:32;29.40;55.90
42199;DHT22;27868;45.184;5.786;2022-08-21T13:23:28;29.50;55.20
42199;DHT22;27868;45.184;5.786;2022-08-21T13:26:18;29.60;55.70
42199;DHT22;27868;45.184;5.786;2022-08-21T13:29:13;29.70;56.00
42199;DHT22;27868;45.184;5.786;2022-08-21T13:32:02;29.80;54.80
42199;DHT22;27868;45.184;5.786;2022-08-21T13:34:47;29.90;55.00
42199;DHT22;27868;45.184;5.786;2022-08-21T13:37:32;30.00;55.30
42199;DHT22;27868;45.184;5.786;2022-08-21T13:40:20;30.00;54.70
42199;DHT22;27868;45.184;5.786;2022-08-21T13:43:13;30.10;54.10
42199;DHT22;27868;45.184;5.786;2022-08-21T13:46:00;30.10;54.40
42199;DHT22;27868;45.184;5.786;2022-08-21T13:48:45;30.00;54.00
42199;DHT22;27868;45.184;5.786;2022-08-21T13:51:30;30.10;53.40
42199;DHT22;27868;45.184;5.786;2022-08-21T13:54:34;30.00;53.00
42199;DHT22;27868;45.184;5.786;2022-08-21T13:57:26;30.00;54.00
42199;DHT22;27868;45.184;5.786;2022-08-21T14:00:25;30.00;54.20
42199;DHT22;27868;45.184;5.786;2022-08-21T14:03:11;30.00;54.30
42199;DHT22;27868;45.184;5.786;2022-08-21T14:05:57;30.00;53.60
42199;DHT22;27868;45.184;5.786;2022-08-21T14:08:51;30.00;53.90
42199;DHT22;27868;45.184;5.786;2022-08-21T14:11:38;30.00;53.60
42199;DHT22;27868;45.184;5.786;2022-08-21T14:14:33;30.00;54.20
42199;DHT22;27868;45.184;5.786;2022-08-21T14:17:34;30.00;55.30
42199;DHT22;27868;45.184;5.786;2022-08-21T14:20:30;30.10;54.00
42199;DHT22;27868;45.184;5.786;2022-08-21T14:23:35;30.10;55.10
42199;DHT22;27868;45.184;5.786;2022-08-21T14:26:21;30.10;54.60
42199;DHT22;27868;45.184;5.786;2022-08-21T14:29:08;30.10;54.00
42199;DHT22;27868;45.184;5.786;2022-08-21T14:31:57;30.10;53.40
42199;DHT22;27868;45.184;5.786;2022-08-21T14:34:42;30.10;53.10
42199;DHT22;27868;45.184;5.786;2022-08-21T14:37:27;30.10;52.90
42199;DHT22;27868;45.184;5.786;2022-08-21T14:40:12;30.00;52.80
42199;DHT22;27868;45.184;5.786;2022-08-21T14:42:57;30.00;52.40
42199;DHT22;27868;45.184;5.786;2022-08-21T14:45:42;30.00;52.60
42199;DHT22;27868;45.184;5.786;2022-08-21T14:48:28;29.90;53.10
42199;DHT22;27868;45.184;5.786;2022-08-21T14:51:13;30.00;52.70
42199;DHT22;27868;45.184;5.786;2022-08-21T14:53:58;29.90;53.00
42199;DHT22;27868;45.184;5.786;2022-08-21T14:56:42;29.90;52.90
42199;DHT22;27868;45.184;5.786;2022-08-21T14:59:27;29.90;53.20
42199;DHT22;27868;45.184;5.786;2022-08-21T15:02:12;29.80;54.00
42199;DHT22;27868;45.184;5.786;2022-08-21T15:04:56;29.80;53.10
42199;DHT22;27868;45.184;5.786;2022-08-21T15:07:41;29.70;52.10
42199;DHT22;27868;45.184;5.786;2022-08-21T15:10:26;29.60;51.80
42199;DHT22;27868;45.184;5.786;2022-08-21T15:13:10;29.60;51.50
42199;DHT22;27868;45.184;5.786;2022-08-21T15:15:55;29.60;51.00
42199;DHT22;27868;45.184;5.786;2022-08-21T15:18:41;29.60;50.80
42199;DHT22;27868;45.184;5.786;2022-08-21T15:21:26;29.60;50.80
42199;DHT22;27868;45.184;5.786;2022-08-21T15:24:11;29.60;50.90
42199;DHT22;27868;45.184;5.786;2022-08-21T15:26:56;29.50;51.00
42199;DHT22;27868;45.184;5.786;2022-08-21T15:29:43;29.60;51.50
42199;DHT22;27868;45.184;5.786;2022-08-21T15:32:27;29.50;50.90
42199;DHT22;27868;45.184;5.786;2022-08-21T15:35:14;29.50;50.40
42199;DHT22;27868;45.184;5.786;2022-08-21T15:37:59;29.50;50.20
42199;DHT22;27868;45.184;5.786;2022-08-21T15:40:44;29.40;50.80
42199;DHT22;27868;45.184;5.786;2022-08-21T15:43:41;29.40;50.80
42199;DHT22;27868;45.184;5.786;2022-08-21T15:46:26;29.30;50.50
42199;DHT22;27868;45.184;5.786;2022-08-21T15:49:11;29.30;50.60
42199;DHT22;27868;45.184;5.786;2022-08-21T15:51:55;29.20;50.00
42199;DHT22;27868;45.184;5.786;2022-08-21T15:54:40;29.20;50.60
42199;DHT22;27868;45.184;5.786;2022-08-21T15:57:25;29.10;49.40
42199;DHT22;27868;45.184;5.786;2022-08-21T16:00:22;29.00;49.50
42199;DHT22;27868;45.184;5.786;2022-08-21T16:03:08;29.00;49.20
42199;DHT22;27868;45.184;5.786;2022-08-21T16:05:56;29.00;50.20
42199;DHT22;27868;45.184;5.786;2022-08-21T16:08:41;28.90;49.60
42199;DHT22;27868;45.184;5.786;2022-08-21T16:11:26;28.90;50.00
42199;DHT22;27868;45.184;5.786;2022-08-21T16:14:14;28.90;49.60
42199;DHT22;27868;45.184;5.786;2022-08-21T16:16:59;28.80;49.70
42199;DHT22;27868;45.184;5.786;2022-08-21T16:19:43;28.80;50.00
42199;DHT22;27868;45.184;5.786;2022-08-21T16:22:28;28.80;50.30
42199;DHT22;27868;45.184;5.786;2022-08-21T16:25:13;28.80;50.10
42199;DHT22;27868;45.184;5.786;2022-08-21T16:27:59;28.80;49.80
42199;DHT22;27868;45.184;5.786;2022-08-21T16:30:47;28.70;50.70
42199;DHT22;27868;45.184;5.786;2022-08-21T16:33:44;28.70;50.30
42199;DHT22;27868;45.184;5.786;2022-08-21T16:36:29;28.70;50.50
42199;DHT22;27868;45.184;5.786;2022-08-21T16:39:14;28.60;50.80
42199;DHT22;27868;45.184;5.786;2022-08-21T16:41:58;28.60;51.00
42199;DHT22;27868;45.184;5.786;2022-08-21T16:44:42;28.60;51.20
42199;DHT22;27868;45.184;5.786;2022-08-21T16:47:27;28.60;50.90
42199;DHT22;27868;45.184;5.786;2022-08-21T16:50:18;28.60;51.20
42199;DHT22;27868;45.184;5.786;2022-08-21T16:53:05;28.50;50.90
42199;DHT22;27868;45.184;5.786;2022-08-21T16:55:51;28.50;50.90
42199;DHT22;27868;45.184;5.786;2022-08-21T16:58:39;28.50;51.80
42199;DHT22;27868;45.184;5.786;2022-08-21T17:01:27;28.40;52.30
42199;DHT22;27868;45.184;5.786;2022-08-21T17:04:13;28.50;52.10
42199;DHT22;27868;45.184;5.786;2022-08-21T17:06:57;28.40;52.60
42199;DHT22;27868;45.184;5.786;2022-08-21T17:09:42;28.40;52.20
42199;DHT22;27868;45.184;5.786;2022-08-21T17:12:26;28.40;51.20
42199;DHT22;27868;45.184;5.786;2022-08-21T17:15:24;28.40;52.00
42199;DHT22;27868;45.184;5.786;2022-08-21T17:18:11;28.40;52.00
42199;DHT22;27868;45.184;5.786;2022-08-21T17:20:57;28.30;51.50
42199;DHT22;27868;45.184;5.786;2022-08-21T17:23:42;28.30;51.60
42199;DHT22;27868;45.184;5.786;2022-08-21T17:26:26;28.30;51.50
42199;DHT22;27868;45.184;5.786;2022-08-21T17:29:12;28.30;52.20
42199;DHT22;27868;45.184;5.786;2022-08-21T17:31:58;28.20;51.50
42199;DHT22;27868;45.184;5.786;2022-08-21T17:34:44;28.20;51.00
42199;DHT22;27868;45.184;5.786;2022-08-21T17:37:28;28.20;51.50
42199;DHT22;27868;45.184;5.786;2022-08-21T17:40:14;28.10;52.30
42199;DHT22;27868;45.184;5.786;2022-08-21T17:42:59;28.00;52.40
42199;DHT22;27868;45.184;5.786;2022-08-21T17:45:44;28.00;52.70
42199;DHT22;27868;45.184;5.786;2022-08-21T17:48:29;28.00;52.40
42199;DHT22;27868;45.184;5.786;2022-08-21T17:51:14;27.90;52.80
42199;DHT22;27868;45.184;5.786;2022-08-21T17:53:59;27.90;52.00
42199;DHT22;27868;45.184;5.786;2022-08-21T17:56:44;27.80;51.90
42199;DHT22;27868;45.184;5.786;2022-08-21T17:59:29;27.80;53.10
42199;DHT22;27868;45.184;5.786;2022-08-21T18:02:14;27.70;53.10
42199;DHT22;27868;45.184;5.786;2022-08-21T18:04:59;27.70;53.00
42199;DHT22;27868;45.184;5.786;2022-08-21T18:07:44;27.60;52.30
42199;DHT22;27868;45.184;5.786;2022-08-21T18:10:29;27.60;51.70
42199;DHT22;27868;45.184;5.786;2022-08-21T18:13:18;27.50;51.90
42199;DHT22;27868;45.184;5.786;2022-08-21T18:16:04;27.50;52.20
42199;DHT22;27868;45.184;5.786;2022-08-21T18:18:49;27.40;51.90
42199;DHT22;27868;45.184;5.786;2022-08-21T18:21:35;27.40;51.80
42199;DHT22;27868;45.184;5.786;2022-08-21T18:24:21;27.30;51.90
42199;DHT22;27868;45.184;5.786;2022-08-21T18:27:07;27.30;51.80
42199;DHT22;27868;45.184;5.786;2022-08-21T18:29:55;27.20;52.60
42199;DHT22;27868;45.184;5.786;2022-08-21T18:32:41;27.20;52.90
42199;DHT22;27868;45.184;5.786;2022-08-21T18:35:26;27.20;52.60
42199;DHT22;27868;45.184;5.786;2022-08-21T18:38:11;27.10;52.10
42199;DHT22;27868;45.184;5.786;2022-08-21T18:40:56;27.10;53.00
42199;DHT22;27868;45.184;5.786;2022-08-21T18:43:43;27.00;53.10